createdAt,value
2023-03-12T00:02:19.018Z,50.18
2023-03-12T00:05:05.332Z,49.95
2023-03-12T00:07:51.990Z,49.99
2023-03-12T00:10:39.535Z,49.98
2023-03-12T00:13:25.604Z,50.11
2023-03-12T00:16:14.098Z,50.14
2023-03-12T00:19:01.407Z,50.53
2023-03-12T00:21:47.568Z,50.27
2023-03-12T00:24:33.604Z,50.18
2023-03-12T00:27:20.620Z,49.93
2023-03-12T00:30:07.721Z,50.36
2023-03-12T00:32:53.405Z,50.45
2023-03-12T00:35:39.293Z,50.66
2023-03-12T00:38:25.217Z,50.26
2023-03-12T00:41:11.144Z,50.01
2023-03-12T00:43:57.727Z,50.09
2023-03-12T00:46:43.887Z,50.34
2023-03-12T00:49:29.535Z,50.47
2023-03-12T00:52:15.511Z,50.37
2023-03-12T00:55:01.267Z,50.86
2023-03-12T00:57:47.126Z,50.67
2023-03-12T01:00:33.083Z,50.18
2023-03-12T01:03:19.267Z,50.64
2023-03-12T01:06:06.056Z,50.47
2023-03-12T01:08:52.514Z,50.81
2023-03-12T01:11:39.028Z,50.27
2023-03-12T01:14:25.555Z,50.95
2023-03-12T01:17:11.707Z,50.84
2023-03-12T01:19:57.557Z,50.39
2023-03-12T01:22:44.246Z,50.39
2023-03-12T01:25:30.496Z,50.85
2023-03-12T01:28:16.227Z,50.38
2023-03-12T01:31:13.412Z,50.25
2023-03-12T01:33:59.436Z,50.39
2023-03-12T01:36:47.789Z,50.84
2023-03-12T01:39:33.521Z,50.24
2023-03-12T01:42:19.393Z,50.50
2023-03-12T01:45:06.139Z,50.17
2023-03-12T01:47:53.102Z,50.98
2023-03-12T01:50:39.062Z,50.54
2023-03-12T01:53:25.443Z,50.41
2023-03-12T01:56:12.450Z,50.44
2023-03-12T01:59:15.560Z,50.49
2023-03-12T02:02:06.702Z,50.98
2023-03-12T02:05:04.644Z,50.27
2023-03-12T02:07:51.580Z,50.94
2023-03-12T02:10:37.843Z,50.36
2023-03-12T02:13:23.934Z,50.55
2023-03-12T02:16:10.248Z,50.47
2023-03-12T02:18:57.392Z,50.46
2023-03-12T02:21:43.612Z,50.80
2023-03-12T02:24:40.057Z,50.35
2023-03-12T02:27:27.526Z,50.72
2023-03-12T02:30:18.654Z,50.43
2023-03-12T02:33:07.519Z,50.47
2023-03-12T02:35:54.477Z,50.08
2023-03-12T02:38:52.023Z,50.23
2023-03-12T02:41:54.621Z,50.62
2023-03-12T02:44:43.765Z,50.80
2023-03-12T02:47:33.090Z,50.70
2023-03-12T02:50:19.488Z,50.26
2023-03-12T02:53:05.297Z,50.51
2023-03-12T02:55:52.040Z,50.55
2023-03-12T02:58:38.038Z,50.23
2023-03-12T03:01:23.970Z,50.55
2023-03-12T03:04:11.794Z,50.65
2023-03-12T03:06:58.040Z,49.91
2023-03-12T03:09:44.461Z,50.28
2023-03-12T03:12:31.344Z,50.56
2023-03-12T03:15:18.665Z,50.26
2023-03-12T03:18:05.238Z,50.37
2023-03-12T03:20:59.722Z,50.54
2023-03-12T03:23:47.876Z,49.95
2023-03-12T03:26:34.218Z,50.52
2023-03-12T03:29:20.756Z,50.47
2023-03-12T03:32:07.371Z,50.34
2023-03-12T03:34:53.173Z,50.17
2023-03-12T03:37:39.710Z,50.08
2023-03-12T03:40:25.951Z,50.55
2023-03-12T03:43:11.683Z,50.30
2023-03-12T03:46:03.059Z,50.12
2023-03-12T03:48:53.008Z,49.98
2023-03-12T03:51:42.657Z,50.23
2023-03-12T03:54:32.091Z,50.29
2023-03-12T03:57:18.926Z,50.11
2023-03-12T04:00:09.583Z,49.96
2023-03-12T04:02:59.407Z,49.95
2023-03-12T04:05:45.597Z,49.80
2023-03-12T04:08:35.462Z,49.50
2023-03-12T04:11:22.703Z,49.62
2023-03-12T04:14:08.630Z,49.28
2023-03-12T04:16:57.043Z,49.66
2023-03-12T04:19:42.843Z,49.73
2023-03-12T04:22:28.832Z,49.68
2023-03-12T04:25:14.762Z,49.53
2023-03-12T04:28:01.353Z,49.13
2023-03-12T04:30:59.616Z,49.35
2023-03-12T04:33:46.337Z,49.45
2023-03-12T04:36:32.643Z,49.18
2023-03-12T04:39:20.400Z,49.07
2023-03-12T04:42:09.868Z,49.53
2023-03-12T04:44:56.276Z,49.19
2023-03-12T04:47:42.150Z,49.11
2023-03-12T04:50:29.214Z,49.33
2023-03-12T04:53:16.672Z,49.14
2023-03-12T04:56:02.353Z,49.69
2023-03-12T04:58:49.369Z,49.50
2023-03-12T05:01:36.800Z,49.02
2023-03-12T05:04:27.626Z,48.97
2023-03-12T05:07:15.220Z,49.02
2023-03-12T05:10:01.336Z,49.09
2023-03-12T05:12:47.467Z,48.62
2023-03-12T05:15:37.047Z,48.04
2023-03-12T05:18:23.392Z,48.56
2023-03-12T05:21:12.515Z,47.85
2023-03-12T05:23:59.123Z,47.82
2023-03-12T05:26:47.238Z,47.80
2023-03-12T05:29:36.505Z,48.10
2023-03-12T05:32:23.464Z,48.03
2023-03-12T05:35:09.946Z,47.76
2023-03-12T05:37:56.073Z,47.87
2023-03-12T05:40:41.826Z,48.26
2023-03-12T05:43:27.793Z,47.92
2023-03-12T05:46:14.865Z,47.13
2023-03-12T05:49:00.853Z,47.12
2023-03-12T05:51:49.146Z,47.04
2023-03-12T05:54:35.598Z,47.22
2023-03-12T05:57:24.072Z,47.06
2023-03-12T06:00:12.664Z,47.50
2023-03-12T06:03:01.747Z,47.26
2023-03-12T06:05:48.383Z,46.84
2023-03-12T06:08:34.463Z,47.02
2023-03-12T06:11:20.323Z,47.07
2023-03-12T06:14:07.087Z,46.77
2023-03-12T06:16:54.919Z,46.99
2023-03-12T06:19:40.601Z,46.84
2023-03-12T06:22:26.881Z,46.31
2023-03-12T06:25:12.675Z,46.47
2023-03-12T06:28:00.000Z,46.53
2023-03-12T06:30:45.727Z,46.08
2023-03-12T06:33:32.047Z,46.30
2023-03-12T06:36:18.159Z,46.43
2023-03-12T06:39:06.507Z,46.36
2023-03-12T06:41:52.173Z,45.86
2023-03-12T06:44:37.765Z,46.38
2023-03-12T06:47:23.550Z,45.73
2023-03-12T06:50:09.976Z,46.75
2023-03-12T06:52:56.105Z,46.15
2023-03-12T06:55:43.659Z,46.25
2023-03-12T06:58:29.732Z,46.67
2023-03-12T07:01:15.540Z,45.82
2023-03-12T07:04:01.543Z,46.13
2023-03-12T07:06:51.419Z,45.45
2023-03-12T07:09:37.566Z,45.94
2023-03-12T07:12:23.855Z,45.85
2023-03-12T07:15:10.178Z,45.93
2023-03-12T07:17:57.145Z,46.10
2023-03-12T07:20:43.875Z,45.87
2023-03-12T07:23:29.894Z,45.92
2023-03-12T07:26:15.974Z,45.03
2023-03-12T07:29:03.116Z,44.92
2023-03-12T07:31:48.905Z,45.33
2023-03-12T07:34:34.972Z,45.31
2023-03-12T07:37:21.311Z,45.01
2023-03-12T07:40:08.186Z,45.20
2023-03-12T07:42:54.255Z,45.11
2023-03-12T07:45:40.407Z,45.17
2023-03-12T07:48:26.336Z,44.45
2023-03-12T07:51:12.225Z,44.95
2023-03-12T07:53:58.034Z,44.38
2023-03-12T07:56:43.955Z,44.96
2023-03-12T07:59:29.919Z,44.52
2023-03-12T08:02:16.109Z,44.38
2023-03-12T08:05:02.392Z,44.29
2023-03-12T08:07:48.164Z,44.48
2023-03-12T08:10:33.987Z,44.53
2023-03-12T08:13:20.054Z,44.46
2023-03-12T08:16:08.946Z,44.18
2023-03-12T08:18:55.479Z,43.64
2023-03-12T08:21:41.796Z,43.40
2023-03-12T08:24:27.532Z,43.25
2023-03-12T08:27:14.418Z,43.27
2023-03-12T08:30:00.341Z,43.49
2023-03-12T08:32:46.537Z,43.62
2023-03-12T08:35:32.561Z,43.27
2023-03-12T08:38:18.370Z,43.50
2023-03-12T08:41:04.349Z,43.12
2023-03-12T08:43:50.209Z,43.30
2023-03-12T08:46:36.138Z,43.04
2023-03-12T08:49:22.664Z,42.57
2023-03-12T08:52:08.995Z,43.46
2023-03-12T08:54:55.054Z,43.28
2023-03-12T08:57:41.118Z,42.86
2023-03-12T09:00:27.100Z,42.57
2023-03-12T09:03:14.937Z,42.71
2023-03-12T09:06:17.009Z,42.12
2023-03-12T09:09:06.436Z,42.91
2023-03-12T09:11:52.225Z,43.02
2023-03-12T09:17:44.205Z,43.04
2023-03-12T09:20:30.248Z,42.69
2023-03-12T09:23:16.137Z,42.63
2023-03-12T09:26:01.954Z,42.16
2023-03-12T09:28:47.874Z,42.28
2023-03-12T09:31:36.118Z,42.49
2023-03-12T09:34:22.534Z,42.25
2023-03-12T09:37:08.519Z,42.81
2023-03-12T09:39:55.779Z,42.72
2023-03-12T09:42:47.975Z,41.70
2023-03-12T09:45:42.791Z,41.82
2023-03-12T09:48:36.231Z,41.97
2023-03-12T09:51:44.842Z,42.25
2023-03-12T09:54:42.695Z,41.94
2023-03-12T09:57:30.056Z,41.97
2023-03-12T10:00:22.518Z,41.67
2023-03-12T10:03:23.887Z,41.75
2023-03-12T10:06:21.494Z,41.91
2023-03-12T10:09:29.969Z,41.38
2023-03-12T10:12:30.087Z,41.56
2023-03-12T10:15:28.366Z,41.69
2023-03-12T10:18:35.989Z,40.87
2023-03-12T10:21:31.397Z,40.92
2023-03-12T10:24:28.953Z,40.58
2023-03-12T10:27:17.731Z,40.49
2023-03-12T10:30:14.495Z,39.52
2023-03-12T10:33:04.466Z,39.89
2023-03-12T10:35:52.060Z,40.26
2023-03-12T10:38:38.082Z,40.22
2023-03-12T10:41:26.656Z,40.21
2023-03-12T10:44:21.776Z,39.54
2023-03-12T10:47:17.925Z,39.57
2023-03-12T10:50:26.759Z,39.62
2023-03-12T10:53:28.567Z,38.86
2023-03-12T10:56:17.950Z,39.79
2023-03-12T10:59:21.177Z,39.52
2023-03-12T11:02:30.309Z,39.73
2023-03-12T11:05:49.628Z,39.45
2023-03-12T11:08:36.900Z,39.13
2023-03-12T11:11:35.084Z,37.65
2023-03-12T11:14:29.417Z,38.95
2023-03-12T11:17:27.016Z,39.43
2023-03-12T11:20:25.342Z,39.27
2023-03-12T11:23:17.035Z,39.36
2023-03-12T11:26:25.578Z,39.12
2023-03-12T11:29:14.604Z,39.22
2023-03-12T11:32:11.030Z,39.33
2023-03-12T11:34:57.630Z,38.97
2023-03-12T11:37:52.776Z,38.36
2023-03-12T11:40:57.177Z,37.84
2023-03-12T11:44:01.911Z,38.27
2023-03-12T11:47:02.920Z,38.11
2023-03-12T11:50:08.768Z,38.85
2023-03-12T11:53:17.537Z,39.14
2023-03-12T11:56:39.692Z,38.63
2023-03-12T11:59:41.821Z,38.85
2023-03-12T12:02:55.727Z,38.73
2023-03-12T12:05:51.090Z,38.44
2023-03-12T12:08:55.224Z,38.24
2023-03-12T12:11:56.786Z,38.07
2023-03-12T12:15:20.693Z,38.01
2023-03-12T12:18:40.662Z,37.93
2023-03-12T12:21:55.466Z,36.56
2023-03-12T12:25:18.202Z,37.90
2023-03-12T12:28:23.058Z,37.30
2023-03-12T12:31:19.045Z,37.23
2023-03-12T12:34:30.134Z,37.69
2023-03-12T12:37:44.823Z,37.46
2023-03-12T12:40:37.508Z,36.85
2023-03-12T12:43:33.341Z,37.29
2023-03-12T12:46:22.498Z,37.19
2023-03-12T12:49:23.892Z,37.17
2023-03-12T12:52:13.718Z,37.00
2023-03-12T12:55:10.708Z,36.56
2023-03-12T12:58:01.484Z,36.78
2023-03-12T13:00:55.043Z,36.25
2023-03-12T13:03:41.074Z,37.33
2023-03-12T13:07:08.532Z,36.61
2023-03-12T13:09:57.173Z,37.14
2023-03-12T13:12:49.938Z,36.22
2023-03-12T13:15:40.162Z,37.66
2023-03-12T13:18:28.448Z,35.48
2023-03-12T13:21:19.890Z,35.71
2023-03-12T13:24:17.120Z,36.21
2023-03-12T13:27:28.721Z,35.88
2023-03-12T13:30:33.058Z,36.14
2023-03-12T13:33:21.805Z,36.31
2023-03-12T13:36:16.725Z,36.01
2023-03-12T13:39:08.472Z,33.80
2023-03-12T13:41:59.022Z,35.26
2023-03-12T13:44:46.612Z,35.80
2023-03-12T13:47:39.047Z,34.20
2023-03-12T13:50:25.505Z,35.32
2023-03-12T13:53:17.136Z,35.35
2023-03-12T13:56:10.771Z,35.22
2023-03-12T13:59:00.519Z,34.60
2023-03-12T14:01:51.399Z,34.33
2023-03-12T14:04:39.123Z,34.45
2023-03-12T14:07:40.250Z,34.46
2023-03-12T14:10:32.327Z,33.98
2023-03-12T14:13:25.763Z,33.25
2023-03-12T14:16:35.899Z,33.38
2023-03-12T14:19:27.436Z,32.46
2023-03-12T14:22:13.748Z,31.37
2023-03-12T14:25:04.437Z,31.79
2023-03-12T14:27:50.372Z,31.53
2023-03-12T14:30:54.543Z,31.19
2023-03-12T14:33:52.530Z,31.12
2023-03-12T14:36:41.761Z,30.57
2023-03-12T14:39:46.178Z,30.32
2023-03-12T14:42:34.589Z,30.02
2023-03-12T14:45:23.557Z,29.31
2023-03-12T14:48:12.014Z,30.01
2023-03-12T14:50:59.921Z,29.87
2023-03-12T14:53:45.984Z,29.81
2023-03-12T14:56:35.890Z,29.51
2023-03-12T14:59:25.590Z,29.43
2023-03-12T15:02:14.528Z,29.12
2023-03-12T15:05:01.900Z,29.29
2023-03-12T15:07:49.006Z,29.04
2023-03-12T15:10:35.390Z,29.25
2023-03-12T15:13:23.229Z,28.94
2023-03-12T15:16:09.301Z,29.02
2023-03-12T15:18:55.258Z,28.27
2023-03-12T15:21:41.532Z,28.69
2023-03-12T15:24:29.128Z,28.53
2023-03-12T15:27:28.801Z,28.73
2023-03-12T15:30:26.038Z,28.86
2023-03-12T15:33:24.583Z,29.01
2023-03-12T15:36:19.960Z,29.15
2023-03-12T15:39:32.774Z,29.23
2023-03-12T15:42:23.558Z,29.17
2023-03-12T15:45:21.371Z,29.30
2023-03-12T15:48:30.050Z,29.23
2023-03-12T15:51:36.664Z,29.64
2023-03-12T15:54:27.365Z,29.28
2023-03-12T15:57:26.067Z,29.24
2023-03-12T16:00:14.813Z,29.78
2023-03-12T16:03:06.221Z,29.10
2023-03-12T16:05:52.012Z,29.41
2023-03-12T16:08:45.036Z,29.42
2023-03-12T16:11:33.435Z,29.56
2023-03-12T16:14:24.588Z,29.79
2023-03-12T16:17:14.070Z,29.70
2023-03-12T16:20:00.006Z,30.08
2023-03-12T16:22:45.824Z,30.10
2023-03-12T16:25:31.792Z,29.92
2023-03-12T16:28:19.408Z,30.07
2023-03-12T16:31:11.470Z,30.04
2023-03-12T16:33:58.194Z,30.17
2023-03-12T16:36:44.331Z,30.37
2023-03-12T16:39:33.281Z,30.32
2023-03-12T16:42:20.046Z,29.97
2023-03-12T16:45:09.155Z,30.45
2023-03-12T16:48:00.178Z,30.55
2023-03-12T16:50:53.031Z,30.68
2023-03-12T16:53:38.934Z,30.45
2023-03-12T16:56:26.182Z,30.27
2023-03-12T16:59:23.833Z,30.75
2023-03-12T17:02:15.943Z,30.60
2023-03-12T17:05:02.286Z,30.65
2023-03-12T17:07:48.246Z,30.77
2023-03-12T17:10:34.198Z,30.87
2023-03-12T17:13:22.932Z,30.46
2023-03-12T17:16:11.543Z,30.59
2023-03-12T17:18:57.440Z,30.90
2023-03-12T17:21:44.303Z,30.58
2023-03-12T17:24:30.403Z,30.68
2023-03-12T17:27:16.594Z,31.00
2023-03-12T17:30:02.936Z,30.54
2023-03-12T17:32:50.257Z,31.21
2023-03-12T17:35:37.090Z,31.43
2023-03-12T17:38:24.760Z,30.95
2023-03-12T17:41:25.564Z,30.85
2023-03-12T17:44:14.867Z,30.79
2023-03-12T17:47:02.224Z,30.93
2023-03-12T17:49:48.527Z,30.83
2023-03-12T17:52:34.395Z,30.77
2023-03-12T17:55:20.230Z,31.29
2023-03-12T17:58:06.442Z,31.30
2023-03-12T18:00:52.380Z,31.42
2023-03-12T18:03:38.473Z,31.29
2023-03-12T18:06:25.045Z,31.73
2023-03-12T18:09:11.018Z,31.32
2023-03-12T18:11:56.952Z,31.17
2023-03-12T18:14:42.767Z,31.02
2023-03-12T18:17:28.691Z,31.33
2023-03-12T18:20:19.562Z,31.16
2023-03-12T18:23:11.763Z,31.37
2023-03-12T18:25:57.604Z,31.28
2023-03-12T18:28:43.527Z,31.67
2023-03-12T18:31:29.542Z,31.23
2023-03-12T18:34:16.106Z,31.39
2023-03-12T18:37:02.098Z,31.38
2023-03-12T18:39:48.116Z,31.15
2023-03-12T18:42:34.249Z,31.46
2023-03-12T18:45:20.133Z,31.26
2023-03-12T18:48:05.996Z,31.26
2023-03-12T18:50:51.906Z,31.37
2023-03-12T18:53:37.767Z,31.11
2023-03-12T18:56:23.620Z,31.29
2023-03-12T18:59:14.608Z,31.43
2023-03-12T19:02:00.572Z,31.08
2023-03-12T19:04:46.369Z,31.17
2023-03-12T19:07:32.546Z,31.41
2023-03-12T19:10:18.984Z,31.58
2023-03-12T19:13:04.968Z,31.20
2023-03-12T19:15:58.086Z,31.38
2023-03-12T19:18:43.902Z,31.22
2023-03-12T19:21:29.701Z,31.50
2023-03-12T19:24:15.619Z,31.57
2023-03-12T19:27:01.399Z,31.69
2023-03-12T19:29:47.224Z,31.91
2023-03-12T19:32:42.554Z,32.02
2023-03-12T19:35:29.256Z,31.75
2023-03-12T19:38:15.115Z,31.85
2023-03-12T19:41:00.959Z,31.87
2023-03-12T19:43:46.754Z,31.62
2023-03-12T19:46:32.862Z,31.59
2023-03-12T19:49:18.858Z,31.64
2023-03-12T19:52:04.650Z,31.91
2023-03-12T19:55:03.470Z,32.00
2023-03-12T19:57:50.515Z,32.09
2023-03-12T20:00:36.707Z,31.88
2023-03-12T20:03:23.257Z,31.90
2023-03-12T20:06:10.309Z,32.06
2023-03-12T20:08:56.329Z,32.18
2023-03-12T20:11:42.069Z,32.23
2023-03-12T20:14:28.109Z,32.33
2023-03-12T20:17:15.003Z,31.99
2023-03-12T20:20:01.495Z,31.87
2023-03-12T20:22:49.513Z,32.18
2023-03-12T20:25:39.550Z,32.04
2023-03-12T20:28:25.536Z,31.84
2023-03-12T20:31:14.046Z,32.60
2023-03-12T20:34:00.215Z,32.11
2023-03-12T20:36:46.214Z,32.55
2023-03-12T20:39:31.846Z,32.67
2023-03-12T20:42:17.667Z,32.30
2023-03-12T20:45:03.836Z,32.25
2023-03-12T20:47:50.181Z,32.53
2023-03-12T20:50:37.885Z,32.53
2023-03-12T20:53:23.664Z,32.53
2023-03-12T20:56:10.610Z,32.71
2023-03-12T20:58:57.275Z,32.93
2023-03-12T21:01:43.467Z,32.63
2023-03-12T21:04:29.712Z,32.76
2023-03-12T21:07:15.540Z,32.50
2023-03-12T21:10:01.251Z,32.58
2023-03-12T21:12:47.143Z,32.64
2023-03-12T21:15:33.081Z,33.35
2023-03-12T21:18:19.270Z,33.25
2023-03-12T21:21:06.778Z,33.04
2023-03-12T21:23:53.289Z,33.14
2023-03-12T21:26:39.016Z,33.26
2023-03-12T21:29:24.882Z,33.58
2023-03-12T21:32:10.740Z,33.32
2023-03-12T21:34:56.693Z,33.02
2023-03-12T21:37:43.608Z,33.55
2023-03-12T21:40:29.382Z,33.07
2023-03-12T21:43:15.182Z,33.43
2023-03-12T21:46:12.165Z,33.94
2023-03-12T21:49:01.481Z,33.20
2023-03-12T21:51:47.303Z,33.16
2023-03-12T21:54:34.288Z,33.98
2023-03-12T21:57:20.424Z,33.70
2023-03-12T22:00:11.782Z,33.62
2023-03-12T22:02:57.687Z,33.53
2023-03-12T22:05:43.424Z,33.91
2023-03-12T22:08:29.399Z,33.93
2023-03-12T22:11:15.940Z,33.96
2023-03-12T22:14:02.008Z,33.73
2023-03-12T22:16:48.050Z,34.12
2023-03-12T22:19:33.853Z,33.83
2023-03-12T22:22:19.733Z,34.11
2023-03-12T22:25:05.954Z,34.22
2023-03-12T22:27:51.989Z,34.12
2023-03-12T22:30:37.900Z,34.36
2023-03-12T22:33:23.691Z,34.34
2023-03-12T22:36:12.652Z,34.18
2023-03-12T22:38:58.488Z,34.01
2023-03-12T22:41:44.352Z,34.12
2023-03-12T22:44:30.234Z,34.29
2023-03-12T22:47:15.922Z,34.30
2023-03-12T22:50:01.922Z,34.34
2023-03-12T22:52:47.715Z,34.38
2023-03-12T22:55:33.999Z,34.54
2023-03-12T22:58:20.072Z,34.31
2023-03-12T23:01:14.518Z,34.82
2023-03-12T23:04:00.645Z,34.71
2023-03-12T23:06:46.835Z,34.48
2023-03-12T23:09:32.606Z,34.84
2023-03-12T23:12:18.504Z,34.90
2023-03-12T23:15:04.748Z,34.67
2023-03-12T23:17:50.867Z,34.59
2023-03-12T23:20:36.892Z,35.02
2023-03-12T23:23:22.695Z,34.68
2023-03-12T23:26:08.828Z,35.06
2023-03-12T23:28:56.113Z,35.06
2023-03-12T23:31:41.938Z,35.03
2023-03-12T23:34:27.811Z,35.37
2023-03-12T23:37:14.346Z,35.14
2023-03-12T23:40:00.252Z,35.24
2023-03-12T23:42:46.067Z,35.40
2023-03-12T23:45:31.863Z,35.56
2023-03-12T23:48:17.950Z,35.53
2023-03-12T23:51:15.968Z,35.58
2023-03-12T23:54:05.389Z,35.22
2023-03-12T23:56:51.394Z,35.42
2023-03-12T23:59:37.493Z,35.33
